createdAt,value
2023-01-17T09:34:22.906Z,841.00
2023-01-17T09:35:22.956Z,798.00
2023-01-17T09:36:22.914Z,760.00
2023-01-17T09:37:22.967Z,755.00
2023-01-17T09:38:23.100Z,751.00
2023-01-17T13:26:15.204Z,646.00
2023-01-17T13:27:15.222Z,631.00
2023-01-17T13:28:15.258Z,698.00
2023-01-17T13:29:15.108Z,738.00
2023-01-17T13:30:15.093Z,858.00
2023-01-17T13:31:15.116Z,699.00
2023-01-17T13:32:15.082Z,685.00
2023-01-17T13:33:15.203Z,697.00
2023-01-17T13:34:15.273Z,699.00
2023-01-17T13:35:15.192Z,750.00
2023-01-17T13:36:15.163Z,756.00
2023-01-17T13:37:15.226Z,793.00
2023-01-17T13:38:15.041Z,798.00
2023-01-17T13:39:15.357Z,812.00
2023-01-17T13:40:15.031Z,847.00
2023-01-17T13:41:15.142Z,855.00
2023-01-17T13:42:15.137Z,859.00
2023-01-17T13:43:15.858Z,878.00
2023-01-17T13:44:15.166Z,907.00
2023-01-17T13:45:15.158Z,925.00
2023-01-17T13:46:15.137Z,944.00
2023-01-17T13:47:15.126Z,941.00
2023-01-17T13:48:15.209Z,940.00
2023-01-17T13:49:15.116Z,941.00
2023-01-17T13:50:15.156Z,956.00
2023-01-17T13:51:15.382Z,958.00
2023-01-17T13:52:15.416Z,981.00
2023-01-17T13:53:15.490Z,966.00
2023-01-17T13:54:15.467Z,956.00
2023-01-17T13:55:15.394Z,3172.00
2023-01-17T13:56:15.622Z,2357.00
2023-01-17T13:57:15.618Z,1236.00
2023-01-17T13:58:15.498Z,1011.00
2023-01-17T13:59:15.748Z,1396.00
2023-01-17T14:00:15.850Z,875.00
2023-01-17T14:01:15.929Z,764.00
2023-01-17T14:02:15.887Z,761.00
2023-01-17T14:03:16.003Z,731.00
2023-01-17T14:04:16.008Z,716.00
2023-01-17T14:05:16.062Z,699.00
2023-01-17T14:06:16.000Z,694.00
2023-01-17T14:07:16.024Z,1370.00
2023-01-17T14:08:16.107Z,914.00
2023-01-17T14:09:16.263Z,783.00
2023-01-17T14:10:16.272Z,766.00
2023-01-17T14:11:16.243Z,769.00
2023-01-17T14:12:16.323Z,758.00
2023-01-17T14:13:16.270Z,772.00
2023-01-17T14:14:16.139Z,763.00
2023-01-17T14:15:16.170Z,785.00
2023-01-17T14:16:16.404Z,804.00
2023-01-17T14:17:16.437Z,827.00
2023-01-17T14:18:16.348Z,847.00
2023-01-17T14:19:16.440Z,859.00
2023-01-17T14:20:16.304Z,867.00
2023-01-17T14:21:16.505Z,870.00
2023-01-17T14:22:16.368Z,892.00
2023-01-17T14:23:16.584Z,899.00
2023-01-17T14:24:16.494Z,914.00
2023-01-17T14:25:16.706Z,921.00
2023-01-17T14:26:16.432Z,921.00
2023-01-17T14:27:16.557Z,912.00
2023-01-17T14:28:16.612Z,906.00
2023-01-17T14:30:26.320Z,942.00
2023-01-17T14:31:26.629Z,948.00
2023-01-17T14:32:26.834Z,954.00
2023-01-17T14:33:28.135Z,969.00
2023-01-17T14:34:27.627Z,981.00
2023-01-17T14:35:29.520Z,971.00
2023-01-17T14:36:29.522Z,968.00
2023-01-17T14:37:26.152Z,969.00
2023-01-17T14:38:27.300Z,1070.00
2023-01-17T14:39:26.819Z,1004.00
2023-01-17T14:40:26.584Z,1005.00
2023-01-17T14:41:27.015Z,998.00
2023-01-17T14:42:27.307Z,997.00
2023-01-17T14:43:34.704Z,992.00
2023-01-17T14:44:26.922Z,997.00
2023-01-17T16:16:39.569Z,1093.00
2023-01-17T16:16:49.503Z,1093.00
2023-01-17T16:16:59.707Z,1096.00
2023-01-17T16:17:09.710Z,1100.00
2023-01-17T16:17:19.630Z,1279.00
2023-01-17T16:17:29.647Z,1941.00
2023-01-17T16:17:39.617Z,1837.00
2023-01-17T16:17:50.067Z,1611.00
2023-01-17T16:18:22.323Z,945.00
2023-01-17T16:18:52.800Z,1452.00
2023-01-17T16:19:02.773Z,1536.00
2023-01-17T16:19:12.994Z,1426.00
2023-01-17T16:19:23.017Z,1298.00
